createdAt,value
2019-03-30T00:04:36.758Z,15.63
2019-03-30T00:09:41.521Z,16.82
2019-03-30T00:14:46.571Z,17.40
2019-03-30T00:19:51.311Z,17.12
2019-03-30T00:24:56.130Z,20.62
2019-03-30T00:30:01.205Z,22.37
2019-03-30T00:35:07.382Z,19.85
2019-03-30T00:40:12.098Z,24.10
2019-03-30T00:45:18.417Z,21.45
2019-03-30T00:50:23.452Z,23.67
2019-03-30T00:55:28.192Z,23.18
2019-03-30T01:00:33.242Z,21.35
2019-03-30T01:05:37.958Z,20.35
2019-03-30T01:10:43.036Z,23.15
2019-03-30T01:15:47.774Z,28.52
2019-03-30T01:20:52.824Z,21.17
2019-03-30T01:25:57.872Z,25.97
2019-03-30T01:31:02.922Z,21.00
2019-03-30T01:36:07.646Z,23.65
2019-03-30T01:41:12.381Z,19.30
2019-03-30T01:46:17.226Z,19.17
2019-03-30T01:51:22.199Z,18.23
2019-03-30T01:56:28.355Z,23.47
2019-03-30T02:01:33.218Z,22.65
2019-03-30T02:06:38.187Z,20.55
2019-03-30T02:11:42.888Z,19.62
2019-03-30T02:16:47.703Z,19.42
2019-03-30T02:21:52.498Z,20.82
2019-03-30T02:26:57.543Z,20.97
2019-03-30T02:32:02.285Z,20.92
2019-03-30T02:37:07.314Z,25.97
2019-03-30T02:42:12.156Z,24.47
2019-03-30T02:47:17.014Z,25.08
2019-03-30T02:52:21.851Z,25.68
2019-03-30T02:57:26.610Z,27.00
2019-03-30T03:02:31.357Z,25.55
2019-03-30T03:07:36.096Z,24.50
2019-03-30T03:12:41.151Z,26.45
2019-03-30T03:17:45.965Z,30.77
2019-03-30T03:22:50.708Z,24.85
2019-03-30T03:27:55.376Z,23.20
2019-03-30T03:33:00.113Z,24.32
2019-03-30T03:38:05.163Z,20.75
2019-03-30T03:43:09.911Z,22.80
2019-03-30T03:48:14.953Z,19.82
2019-03-30T03:53:20.183Z,23.50
2019-03-30T03:58:26.563Z,19.70
2019-03-30T04:03:33.461Z,25.10
2019-03-30T04:08:39.127Z,25.50
2019-03-30T04:13:45.814Z,23.67
2019-03-30T04:18:50.779Z,26.02
2019-03-30T04:23:55.570Z,25.35
2019-03-30T04:29:00.570Z,27.82
2019-03-30T04:34:05.312Z,25.88
2019-03-30T04:39:10.157Z,29.95
2019-03-30T04:44:15.104Z,28.40
2019-03-30T04:49:19.844Z,27.93
2019-03-30T04:54:24.586Z,29.05
2019-03-30T04:59:29.635Z,27.60
2019-03-30T05:04:34.378Z,32.50
2019-03-30T05:09:39.035Z,32.40
2019-03-30T05:14:43.866Z,30.72
2019-03-30T05:19:48.605Z,34.25
2019-03-30T05:24:53.346Z,37.93
2019-03-30T05:29:58.068Z,35.13
2019-03-30T05:35:02.916Z,33.33
2019-03-30T05:40:08.800Z,31.48
2019-03-30T05:45:14.103Z,31.97
2019-03-30T05:50:18.835Z,32.45
2019-03-30T05:55:24.673Z,32.17
2019-03-30T06:00:29.612Z,35.60
2019-03-30T06:05:34.662Z,35.90
2019-03-30T06:10:39.488Z,32.42
2019-03-30T06:15:44.454Z,39.75
2019-03-30T06:20:49.279Z,30.80
2019-03-30T06:25:54.247Z,32.90
2019-03-30T06:30:59.298Z,30.55
2019-03-30T06:36:04.318Z,34.25
2019-03-30T06:41:09.168Z,28.47
2019-03-30T06:46:14.134Z,28.87
2019-03-30T06:51:18.955Z,29.07
2019-03-30T06:56:23.928Z,31.97
2019-03-30T07:01:30.517Z,29.27
2019-03-30T07:06:35.875Z,29.45
2019-03-30T07:11:44.297Z,30.02
2019-03-30T07:16:52.112Z,25.17
2019-03-30T07:27:00.731Z,27.15
2019-03-30T07:32:05.418Z,33.90
2019-03-30T07:37:10.237Z,30.85
2019-03-30T07:42:15.512Z,31.00
2019-03-30T07:47:21.176Z,29.65
2019-03-30T07:52:25.914Z,36.88
2019-03-30T07:57:30.966Z,32.48
2019-03-30T08:02:35.812Z,34.40
2019-03-30T08:07:40.530Z,32.25
2019-03-30T08:12:45.501Z,29.42
2019-03-30T08:17:50.551Z,31.00
2019-03-30T08:22:55.578Z,31.55
2019-03-30T08:28:00.341Z,31.65
2019-03-30T08:33:05.377Z,30.80
2019-03-30T08:38:10.116Z,28.07
2019-03-30T08:43:15.796Z,29.25
2019-03-30T08:48:20.514Z,29.00
2019-03-30T08:53:26.816Z,29.32
2019-03-30T08:58:31.866Z,31.75
2019-03-30T09:03:36.608Z,31.07
2019-03-30T09:08:41.351Z,31.42
2019-03-30T09:13:46.404Z,26.90
2019-03-30T09:18:51.107Z,25.52
2019-03-30T09:24:08.983Z,31.70
2019-03-30T09:29:02.869Z,28.98
2019-03-30T09:34:07.825Z,29.25
2019-03-30T09:39:12.877Z,27.70
2019-03-30T09:44:17.596Z,28.02
2019-03-30T09:49:22.666Z,27.13
2019-03-30T09:54:27.717Z,29.40
2019-03-30T09:59:32.456Z,29.05
2019-03-30T10:04:37.311Z,27.98
2019-03-30T10:09:42.247Z,30.55
2019-03-30T10:14:48.218Z,32.60
2019-03-30T10:20:03.626Z,29.20
2019-03-30T10:24:59.319Z,29.52
2019-03-30T10:30:04.878Z,30.60
2019-03-30T10:35:11.207Z,27.50
2019-03-30T10:40:16.236Z,31.95
2019-03-30T10:45:21.058Z,28.73
2019-03-30T10:50:26.021Z,27.50
2019-03-30T10:55:30.762Z,28.62
2019-03-30T11:00:37.355Z,27.65
2019-03-30T11:05:42.175Z,32.85
2019-03-30T11:10:47.448Z,27.55
2019-03-30T11:15:52.187Z,27.52
2019-03-30T11:20:57.242Z,31.40
2019-03-30T11:26:02.285Z,26.73
2019-03-30T11:31:07.130Z,25.45
2019-03-30T11:36:12.078Z,27.85
2019-03-30T11:41:16.734Z,28.95
2019-03-30T11:46:21.562Z,28.45
2019-03-30T11:51:26.308Z,29.05
2019-03-30T11:56:31.352Z,29.07
2019-03-30T12:01:36.708Z,28.25
2019-03-30T12:06:41.739Z,26.00
2019-03-30T12:11:46.822Z,28.23
2019-03-30T12:16:51.856Z,28.42
2019-03-30T12:21:56.678Z,30.17
2019-03-30T12:30:40.067Z,27.77
2019-03-30T12:35:44.786Z,27.05
2019-03-30T12:40:49.629Z,27.62
2019-03-30T12:45:54.605Z,25.10
2019-03-30T12:51:00.985Z,29.65
2019-03-30T12:56:08.827Z,26.73
2019-03-30T13:01:15.532Z,26.20
2019-03-30T13:06:19.813Z,27.80
2019-03-30T13:11:24.761Z,24.23
2019-03-30T13:16:29.811Z,26.48
2019-03-30T13:21:34.863Z,27.95
2019-03-30T13:26:39.607Z,24.45
2019-03-30T13:31:44.343Z,27.27
2019-03-30T13:36:49.091Z,30.77
2019-03-30T13:41:53.827Z,23.12
2019-03-30T13:46:58.584Z,22.67
2019-03-30T13:52:03.394Z,30.10
2019-03-30T13:57:08.372Z,31.90
2019-03-30T14:02:13.411Z,26.90
2019-03-30T14:07:18.230Z,22.87
2019-03-30T14:12:23.220Z,23.15
2019-03-30T14:17:28.250Z,27.27
2019-03-30T14:22:32.994Z,26.77
2019-03-30T14:27:37.914Z,29.35
2019-03-30T14:32:42.785Z,21.57
2019-03-30T14:37:47.524Z,23.50
2019-03-30T14:42:52.577Z,28.40
2019-03-30T14:47:58.069Z,28.95
2019-03-30T14:53:04.739Z,25.45
2019-03-30T14:58:09.591Z,24.50
2019-03-30T15:03:14.590Z,25.60
2019-03-30T15:08:20.278Z,32.55
2019-03-30T15:13:25.356Z,29.27
2019-03-30T15:18:30.067Z,31.52
2019-03-30T15:23:34.788Z,32.65
2019-03-30T15:28:42.619Z,35.38
2019-03-30T15:33:46.143Z,46.02
2019-03-30T15:38:50.958Z,36.73
2019-03-30T15:43:55.935Z,41.50
2019-03-30T15:49:00.754Z,36.38
2019-03-30T15:54:05.720Z,34.98
2019-03-30T15:59:10.463Z,34.43
2019-03-30T16:04:16.177Z,36.28
2019-03-30T16:09:21.159Z,59.27
2019-03-30T16:14:26.132Z,94.17
2019-03-30T16:19:30.970Z,79.77
2019-03-30T16:24:35.653Z,55.73
2019-03-30T16:29:40.426Z,75.72
2019-03-30T16:34:45.502Z,107.87
2019-03-30T16:39:50.240Z,58.68
2019-03-30T16:44:55.266Z,466.15
2019-03-30T16:50:00.031Z,94.62
2019-03-30T16:55:05.701Z,286.95
2019-03-30T17:00:11.066Z,293.23
2019-03-30T17:05:19.177Z,475.00
2019-03-30T17:10:24.606Z,549.52
2019-03-30T17:15:29.586Z,339.50
2019-03-30T17:20:34.421Z,489.52
2019-03-30T17:25:39.386Z,283.90
2019-03-30T17:30:44.421Z,215.75
2019-03-30T17:35:49.471Z,249.62
2019-03-30T17:40:54.517Z,143.70
2019-03-30T17:45:59.202Z,221.32
2019-03-30T17:51:04.183Z,495.70
2019-03-30T17:56:09.356Z,360.75
2019-03-30T18:01:15.801Z,378.80
2019-03-30T18:06:20.991Z,380.62
2019-03-30T18:11:25.816Z,333.68
2019-03-30T18:16:30.781Z,146.98
2019-03-30T18:21:37.793Z,339.20
2019-03-30T18:26:42.417Z,285.82
2019-03-30T18:31:47.464Z,279.73
2019-03-30T18:36:52.825Z,224.30
2019-03-30T18:41:57.960Z,282.53
2019-03-30T18:47:02.929Z,188.78
2019-03-30T18:52:08.277Z,112.55
2019-03-30T18:57:13.634Z,249.18
2019-03-30T19:02:19.344Z,204.60
2019-03-30T19:07:24.344Z,101.67
2019-03-30T19:12:29.223Z,70.97
2019-03-30T19:17:34.135Z,172.87
2019-03-30T19:22:40.422Z,86.92
2019-03-30T19:27:45.463Z,178.78
2019-03-30T19:32:50.186Z,161.80
2019-03-30T19:37:54.927Z,176.20
2019-03-30T19:42:59.998Z,128.35
2019-03-30T19:48:05.052Z,76.30
2019-03-30T19:53:10.095Z,68.70
2019-03-30T19:58:15.452Z,117.17
2019-03-30T20:03:20.806Z,182.53
2019-03-30T20:08:25.856Z,80.45
2019-03-30T20:13:30.921Z,75.45
2019-03-30T20:18:35.954Z,65.95
2019-03-30T20:23:40.879Z,73.10
2019-03-30T20:28:46.031Z,76.97
2019-03-30T20:33:50.874Z,77.75
2019-03-30T20:38:55.632Z,75.28
2019-03-30T20:44:00.585Z,84.10
2019-03-30T20:49:05.648Z,90.83
2019-03-30T20:54:10.493Z,79.50
2019-03-30T20:59:15.425Z,82.57
2019-03-30T21:04:25.016Z,65.03
2019-03-30T21:09:30.133Z,68.95
2019-03-30T21:14:35.180Z,66.42
2019-03-30T21:19:39.930Z,74.27
2019-03-30T21:24:44.742Z,71.00
2019-03-30T21:29:54.793Z,68.47
2019-03-30T21:34:56.618Z,73.17
2019-03-30T21:40:01.435Z,85.87
2019-03-30T21:45:07.934Z,86.12
2019-03-30T21:50:12.855Z,83.72
2019-03-30T21:55:17.803Z,86.00
2019-03-30T22:00:39.139Z,73.55
2019-03-30T22:05:44.116Z,84.58
2019-03-30T22:10:49.333Z,149.23
2019-03-30T22:15:54.202Z,72.27
2019-03-30T22:20:59.256Z,95.07
2019-03-30T22:26:04.301Z,77.95
2019-03-30T22:31:09.350Z,76.10
2019-03-30T22:36:14.091Z,67.37
2019-03-30T22:41:18.839Z,81.97
2019-03-30T22:46:24.881Z,76.45
2019-03-30T22:51:29.729Z,69.27
2019-03-30T22:56:34.596Z,74.70
2019-03-30T23:01:39.420Z,72.42
2019-03-30T23:06:44.699Z,100.87
2019-03-30T23:11:49.437Z,75.55
2019-03-30T23:16:54.257Z,69.00
2019-03-30T23:21:58.997Z,70.40
2019-03-30T23:27:03.842Z,79.42
2019-03-30T23:32:08.791Z,62.23
2019-03-30T23:37:13.635Z,66.28
2019-03-30T23:42:18.478Z,57.23
2019-03-30T23:47:23.322Z,58.60
2019-03-30T23:52:28.294Z,65.62
2019-03-30T23:57:33.115Z,73.33
